createdAt,value
2018-06-18T00:00:13.559Z,15.73
2018-06-18T00:01:14.285Z,15.86
2018-06-18T00:02:14.996Z,15.79
2018-06-18T00:03:15.709Z,15.76
2018-06-18T00:04:16.415Z,15.73
2018-06-18T00:05:17.127Z,15.73
2018-06-18T00:06:17.839Z,15.68
2018-06-18T00:07:18.562Z,15.70
2018-06-18T00:08:19.275Z,15.75
2018-06-18T00:09:19.987Z,15.79
2018-06-18T00:10:20.698Z,15.83
2018-06-18T00:11:21.411Z,15.79
2018-06-18T00:12:22.124Z,15.77
2018-06-18T00:13:22.837Z,15.82
2018-06-18T00:14:23.549Z,15.80
2018-06-18T00:15:24.261Z,15.88
2018-06-18T00:16:24.975Z,15.79
2018-06-18T00:17:25.686Z,15.86
2018-06-18T00:18:26.400Z,15.82
2018-06-18T00:19:27.112Z,15.84
2018-06-18T00:20:27.833Z,15.79
2018-06-18T00:21:28.545Z,15.77
2018-06-18T00:22:29.270Z,15.68
2018-06-18T00:23:29.984Z,15.77
2018-06-18T00:24:30.696Z,15.75
2018-06-18T00:25:31.408Z,15.76
2018-06-18T00:26:32.121Z,15.70
2018-06-18T00:27:32.833Z,15.72
2018-06-18T00:28:33.545Z,15.82
2018-06-18T00:29:34.258Z,15.76
2018-06-18T00:30:34.973Z,15.67
2018-06-18T00:31:35.686Z,15.77
2018-06-18T00:32:36.397Z,15.90
2018-06-18T00:33:37.109Z,15.79
2018-06-18T00:34:37.818Z,15.75
2018-06-18T00:35:38.542Z,15.82
2018-06-18T00:36:39.254Z,15.79
2018-06-18T00:37:39.966Z,15.79
2018-06-18T00:38:40.682Z,15.75
2018-06-18T00:39:41.391Z,15.84
2018-06-18T00:40:42.107Z,15.83
2018-06-18T00:41:42.828Z,15.77
2018-06-18T00:42:43.541Z,15.77
2018-06-18T00:43:44.254Z,15.86
2018-06-18T00:44:44.966Z,15.86
2018-06-18T00:45:45.678Z,15.77
2018-06-18T00:46:46.405Z,15.79
2018-06-18T00:47:47.132Z,15.84
2018-06-18T00:48:47.842Z,15.84
2018-06-18T00:49:48.554Z,15.79
2018-06-18T00:50:49.265Z,15.82
2018-06-18T00:51:49.976Z,15.82
2018-06-18T00:52:50.689Z,15.79
2018-06-18T00:53:51.400Z,15.84
2018-06-18T00:55:52.739Z,15.82
2018-06-18T00:56:53.450Z,15.84
2018-06-18T00:57:54.162Z,15.83
2018-06-18T00:58:54.873Z,15.80
2018-06-18T00:59:55.588Z,15.79
2018-06-18T01:00:56.299Z,15.88
2018-06-18T01:01:57.011Z,15.91
2018-06-18T01:02:57.724Z,15.82
2018-06-18T01:03:58.438Z,15.76
2018-06-18T01:04:59.150Z,15.75
2018-06-18T01:05:59.864Z,15.72
2018-06-18T01:07:00.574Z,15.73
2018-06-18T01:08:01.287Z,15.72
2018-06-18T01:09:02.000Z,15.79
2018-06-18T01:10:02.712Z,15.82
2018-06-18T01:11:03.425Z,15.73
2018-06-18T01:12:04.150Z,15.79
2018-06-18T01:13:04.862Z,15.77
2018-06-18T01:14:05.586Z,15.75
2018-06-18T01:15:06.297Z,15.76
2018-06-18T01:16:07.008Z,15.68
2018-06-18T01:17:07.717Z,15.77
2018-06-18T01:18:08.428Z,15.82
2018-06-18T01:19:09.142Z,15.77
2018-06-18T01:20:09.864Z,15.76
2018-06-18T01:21:10.578Z,15.76
2018-06-18T01:22:11.304Z,15.82
2018-06-18T01:23:12.016Z,15.75
2018-06-18T01:24:12.728Z,15.79
2018-06-18T01:25:13.441Z,15.73
2018-06-18T01:26:14.154Z,15.80
2018-06-18T01:27:14.865Z,15.75
2018-06-18T01:28:15.577Z,15.79
2018-06-18T01:29:16.292Z,15.75
2018-06-18T01:30:17.003Z,15.83
2018-06-18T01:31:17.730Z,15.79
2018-06-18T01:32:18.442Z,15.82
2018-06-18T01:33:19.153Z,15.72
2018-06-18T01:34:19.866Z,15.79
2018-06-18T01:35:20.578Z,15.79
2018-06-18T01:36:21.291Z,15.79
2018-06-18T01:37:22.004Z,15.76
2018-06-18T01:38:22.714Z,15.73
2018-06-18T01:39:23.428Z,15.80
2018-06-18T01:40:24.139Z,15.75
2018-06-18T01:41:24.862Z,15.80
2018-06-18T01:42:25.573Z,15.73
2018-06-18T01:43:26.287Z,15.75
2018-06-18T01:44:27.045Z,15.79
2018-06-18T01:45:27.709Z,15.82
2018-06-18T01:46:28.422Z,15.79
2018-06-18T01:47:29.132Z,15.79
2018-06-18T01:48:29.844Z,15.73
2018-06-18T01:49:30.570Z,15.82
2018-06-18T01:50:31.287Z,15.76
2018-06-18T01:51:31.996Z,15.86
2018-06-18T01:52:32.713Z,15.79
2018-06-18T01:53:33.438Z,15.84
2018-06-18T01:54:34.160Z,15.82
2018-06-18T01:55:34.872Z,15.76
2018-06-18T01:56:35.584Z,15.79
2018-06-18T01:57:36.305Z,15.79
2018-06-18T01:58:37.018Z,15.76
2018-06-18T01:59:37.730Z,15.76
2018-06-18T02:00:38.441Z,15.76
2018-06-18T02:01:39.152Z,15.80
2018-06-18T02:02:39.864Z,15.77
2018-06-18T02:03:40.575Z,15.79
2018-06-18T02:04:41.300Z,15.76
2018-06-18T02:05:42.013Z,15.82
2018-06-18T02:06:42.759Z,15.75
2018-06-18T02:07:43.484Z,15.80
2018-06-18T02:08:44.195Z,15.75
2018-06-18T02:09:44.907Z,15.75
2018-06-18T02:10:45.619Z,15.76
2018-06-18T02:11:46.343Z,15.77
2018-06-18T02:12:47.055Z,15.79
2018-06-18T02:13:47.763Z,15.76
2018-06-18T02:14:48.476Z,15.76
2018-06-18T02:15:49.187Z,15.73
2018-06-18T02:16:49.900Z,15.76
2018-06-18T02:17:50.609Z,15.79
2018-06-18T02:18:51.320Z,15.76
2018-06-18T02:19:52.030Z,15.73
2018-06-18T02:20:52.742Z,15.73
2018-06-18T02:21:53.454Z,15.77
2018-06-18T02:22:54.165Z,15.76
2018-06-18T02:23:54.888Z,15.83
2018-06-18T02:24:55.598Z,15.79
2018-06-18T02:25:56.309Z,15.83
2018-06-18T02:26:57.021Z,15.84
2018-06-18T02:27:57.745Z,15.90
2018-06-18T02:28:58.459Z,15.86
2018-06-18T02:29:59.170Z,15.82
2018-06-18T02:30:59.908Z,15.88
2018-06-18T02:32:00.620Z,15.83
2018-06-18T02:33:01.332Z,15.95
2018-06-18T02:34:02.047Z,15.90
2018-06-18T02:35:02.768Z,15.82
2018-06-18T02:36:03.479Z,15.91
2018-06-18T02:37:04.192Z,15.80
2018-06-18T02:38:04.905Z,15.80
2018-06-18T02:39:05.617Z,15.84
2018-06-18T02:40:06.328Z,15.82
2018-06-18T02:41:07.052Z,15.90
2018-06-18T02:42:07.766Z,15.84
2018-06-18T02:43:08.477Z,15.77
2018-06-18T02:44:09.189Z,15.79
2018-06-18T02:45:09.915Z,15.84
2018-06-18T02:46:10.630Z,15.80
2018-06-18T02:47:11.341Z,15.82
2018-06-18T02:48:12.056Z,15.80
2018-06-18T02:49:12.772Z,15.91
2018-06-18T02:50:13.483Z,15.88
2018-06-18T02:51:14.197Z,15.83
2018-06-18T02:52:14.920Z,15.83
2018-06-18T02:53:15.633Z,15.77
2018-06-18T02:54:16.360Z,15.80
2018-06-18T02:55:17.076Z,15.80
2018-06-18T02:56:17.790Z,15.83
2018-06-18T02:57:18.505Z,15.84
2018-06-18T02:58:19.219Z,15.88
2018-06-18T02:59:19.932Z,15.84
2018-06-18T03:00:20.659Z,15.80
2018-06-18T03:01:21.372Z,15.79
2018-06-18T03:02:22.085Z,15.86
2018-06-18T03:03:22.813Z,15.88
2018-06-18T03:04:23.528Z,15.88
2018-06-18T03:05:24.243Z,15.86
2018-06-18T03:06:24.970Z,15.94
2018-06-18T03:07:25.684Z,15.91
2018-06-18T03:08:26.397Z,15.82
2018-06-18T03:09:27.124Z,15.86
2018-06-18T03:10:27.839Z,15.80
2018-06-18T03:11:28.552Z,15.83
2018-06-18T03:12:29.267Z,15.88
2018-06-18T03:13:29.979Z,15.83
2018-06-18T03:14:30.694Z,15.92
2018-06-18T03:15:31.407Z,15.86
2018-06-18T03:16:32.121Z,15.83
2018-06-18T03:17:32.833Z,15.80
2018-06-18T03:18:33.546Z,15.91
2018-06-18T03:19:34.261Z,15.82
2018-06-18T03:20:34.976Z,15.91
2018-06-18T03:21:35.701Z,15.90
2018-06-18T03:22:36.415Z,15.82
2018-06-18T03:23:37.142Z,15.86
2018-06-18T03:24:37.857Z,15.86
2018-06-18T03:25:38.583Z,15.80
2018-06-18T03:26:39.296Z,15.80
2018-06-18T03:27:40.011Z,15.88
2018-06-18T03:28:40.729Z,15.88
2018-06-18T03:29:41.441Z,15.90
2018-06-18T03:30:42.156Z,15.88
2018-06-18T03:31:42.870Z,15.90
2018-06-18T03:32:43.596Z,15.84
2018-06-18T03:33:44.314Z,15.92
2018-06-18T03:34:45.025Z,15.95
2018-06-18T03:35:45.735Z,15.95
2018-06-18T03:36:46.460Z,16.00
2018-06-18T03:37:47.176Z,15.98
2018-06-18T03:38:47.892Z,16.00
2018-06-18T03:39:48.607Z,15.91
2018-06-18T03:40:49.324Z,15.97
2018-06-18T03:41:50.042Z,15.98
2018-06-18T03:42:50.758Z,16.02
2018-06-18T03:43:51.473Z,15.98
2018-06-18T03:44:52.201Z,15.98
2018-06-18T03:45:52.917Z,16.00
2018-06-18T03:46:53.633Z,15.98
2018-06-18T03:47:54.348Z,16.00
2018-06-18T03:48:55.076Z,15.97
2018-06-18T03:49:55.802Z,15.84
2018-06-18T03:50:56.522Z,15.82
2018-06-18T03:51:57.235Z,15.82
2018-06-18T03:52:57.948Z,15.83
2018-06-18T03:53:58.662Z,15.77
2018-06-18T03:54:59.378Z,15.70
2018-06-18T03:56:00.093Z,15.80
2018-06-18T03:57:00.810Z,15.65
2018-06-18T03:58:01.537Z,15.62
2018-06-18T03:59:02.253Z,15.44
2018-06-18T04:00:02.979Z,15.47
2018-06-18T04:01:03.710Z,15.51
2018-06-18T04:02:04.435Z,15.40
2018-06-18T04:03:05.150Z,15.54
2018-06-18T04:04:05.864Z,15.47
2018-06-18T04:05:06.581Z,15.52
2018-06-18T04:06:07.296Z,15.46
2018-06-18T04:07:08.010Z,15.46
2018-06-18T04:08:08.728Z,15.46
2018-06-18T04:09:09.443Z,15.44
2018-06-18T04:10:10.159Z,15.57
2018-06-18T04:11:10.873Z,15.47
2018-06-18T04:12:11.593Z,15.47
2018-06-18T04:13:12.313Z,15.35
2018-06-18T04:14:13.026Z,15.46
2018-06-18T04:15:13.756Z,15.51
2018-06-18T04:16:14.476Z,15.49
2018-06-18T04:17:15.200Z,15.46
2018-06-18T04:18:15.916Z,15.58
2018-06-18T04:19:16.630Z,15.51
2018-06-18T04:20:17.346Z,15.39
2018-06-18T04:21:18.064Z,15.49
2018-06-18T04:22:18.778Z,15.47
2018-06-18T04:23:19.502Z,15.37
2018-06-18T04:24:20.224Z,15.52
2018-06-18T04:25:20.952Z,15.39
2018-06-18T04:26:21.670Z,15.46
2018-06-18T04:27:22.389Z,15.42
2018-06-18T04:28:23.103Z,15.46
2018-06-18T04:29:23.820Z,15.49
2018-06-18T04:30:24.535Z,15.58
2018-06-18T04:31:25.250Z,15.52
2018-06-18T04:32:25.968Z,15.49
2018-06-18T04:33:26.683Z,15.58
2018-06-18T04:34:27.413Z,15.55
2018-06-18T04:35:28.131Z,15.57
2018-06-18T04:36:28.859Z,15.54
2018-06-18T04:37:29.604Z,15.55
2018-06-18T04:38:30.304Z,15.52
2018-06-18T04:39:31.022Z,15.49
2018-06-18T04:40:31.740Z,15.58
2018-06-18T04:41:32.457Z,15.65
2018-06-18T04:42:33.182Z,15.65
2018-06-18T04:43:33.898Z,15.67
2018-06-18T04:44:34.615Z,15.72
2018-06-18T04:45:35.332Z,15.80
2018-06-18T04:46:36.051Z,15.82
2018-06-18T04:47:36.779Z,15.80
2018-06-18T04:48:37.495Z,15.76
2018-06-18T04:49:38.210Z,15.97
2018-06-18T04:50:38.930Z,15.92
2018-06-18T04:51:39.658Z,15.94
2018-06-18T04:52:40.373Z,15.98
2018-06-18T04:53:41.089Z,15.98
2018-06-18T04:54:41.819Z,16.00
2018-06-18T04:55:42.535Z,16.02
2018-06-18T04:56:43.327Z,15.98
2018-06-18T04:57:43.970Z,16.01
2018-06-18T04:58:44.699Z,15.94
2018-06-18T04:59:45.474Z,15.95
2018-06-18T05:00:46.188Z,16.00
2018-06-18T05:01:46.918Z,15.97
2018-06-18T05:02:47.633Z,15.97
2018-06-18T05:03:48.350Z,15.90
2018-06-18T05:04:49.080Z,15.98
2018-06-18T05:05:49.821Z,16.00
2018-06-18T05:06:50.537Z,15.97
2018-06-18T05:07:51.266Z,15.97
2018-06-18T05:08:51.984Z,15.91
2018-06-18T05:09:52.698Z,15.95
2018-06-18T05:10:53.414Z,15.97
2018-06-18T05:11:54.132Z,15.95
2018-06-18T05:12:54.914Z,16.02
2018-06-18T05:13:55.636Z,16.05
2018-06-18T05:14:56.362Z,16.04
2018-06-18T05:15:57.094Z,16.02
2018-06-18T05:16:57.810Z,16.10
2018-06-18T05:17:58.527Z,16.00
2018-06-18T05:18:59.257Z,16.01
2018-06-18T05:19:59.973Z,16.00
2018-06-18T05:21:00.688Z,15.98
2018-06-18T05:22:01.405Z,16.13
2018-06-18T05:23:02.136Z,16.08
2018-06-18T05:24:02.852Z,16.05
2018-06-18T05:25:03.568Z,16.13
2018-06-18T05:26:04.298Z,16.16
2018-06-18T05:27:05.016Z,16.12
2018-06-18T05:28:05.733Z,16.09
2018-06-18T05:29:06.461Z,16.08
2018-06-18T05:30:07.179Z,16.13
2018-06-18T05:31:07.897Z,16.10
2018-06-18T05:32:08.613Z,16.20
2018-06-18T05:33:09.330Z,16.05
2018-06-18T05:34:10.058Z,16.20
2018-06-18T05:35:10.773Z,16.17
2018-06-18T05:36:11.489Z,16.20
2018-06-18T05:37:12.205Z,16.20
2018-06-18T05:38:12.936Z,16.13
2018-06-18T05:39:13.666Z,16.32
2018-06-18T05:40:14.383Z,16.23
2018-06-18T05:41:15.099Z,16.21
2018-06-18T05:42:15.815Z,16.32
2018-06-18T05:43:16.532Z,16.24
2018-06-18T05:44:17.247Z,16.33
2018-06-18T05:45:17.977Z,16.31
2018-06-18T05:46:18.694Z,16.32
2018-06-18T05:47:19.410Z,16.35
2018-06-18T05:48:20.127Z,16.38
2018-06-18T05:49:20.844Z,16.36
2018-06-18T05:50:21.616Z,16.38
2018-06-18T05:51:22.303Z,16.46
2018-06-18T05:52:23.020Z,16.51
2018-06-18T05:53:23.738Z,16.51
2018-06-18T05:54:24.454Z,16.51
2018-06-18T05:55:25.172Z,16.54
2018-06-18T05:56:25.889Z,16.49
2018-06-18T05:57:26.609Z,16.54
2018-06-18T05:58:27.386Z,16.56
2018-06-18T05:59:28.066Z,16.60
2018-06-18T06:00:28.784Z,16.64
2018-06-18T06:01:29.503Z,16.58
2018-06-18T06:02:30.220Z,16.64
2018-06-18T06:03:30.935Z,16.64
2018-06-18T06:04:31.650Z,16.65
2018-06-18T06:05:32.366Z,16.65
2018-06-18T06:06:33.082Z,16.64
2018-06-18T06:07:33.802Z,16.61
2018-06-18T06:08:34.517Z,16.64
2018-06-18T06:09:35.234Z,16.57
2018-06-18T06:10:35.951Z,16.54
2018-06-18T06:11:36.686Z,16.60
2018-06-18T06:12:37.410Z,16.54
2018-06-18T06:13:38.150Z,16.39
2018-06-18T06:14:38.871Z,16.38
2018-06-18T06:15:39.589Z,16.35
2018-06-18T06:16:40.305Z,16.32
2018-06-18T06:17:41.023Z,16.31
2018-06-18T06:18:41.753Z,16.26
2018-06-18T06:19:42.469Z,16.24
2018-06-18T06:20:43.186Z,16.29
2018-06-18T06:21:43.915Z,16.24
2018-06-18T06:22:44.631Z,16.28
2018-06-18T06:23:45.359Z,16.28
2018-06-18T06:24:46.070Z,16.35
2018-06-18T06:25:46.786Z,16.38
2018-06-18T06:26:47.504Z,16.33
2018-06-18T06:27:48.244Z,16.41
2018-06-18T06:28:48.953Z,16.33
2018-06-18T06:29:49.673Z,16.41
2018-06-18T06:30:50.403Z,16.49
2018-06-18T06:31:51.126Z,16.57
2018-06-18T06:32:51.856Z,16.74
2018-06-18T06:33:52.574Z,16.93
2018-06-18T06:34:53.303Z,16.91
2018-06-18T06:35:54.022Z,17.16
2018-06-18T06:36:54.753Z,17.19
2018-06-18T06:37:55.473Z,17.19
2018-06-18T06:38:56.190Z,17.06
2018-06-18T06:39:56.910Z,17.23
2018-06-18T06:40:57.645Z,17.23
2018-06-18T06:41:58.363Z,17.23
2018-06-18T06:42:59.093Z,17.31
2018-06-18T06:43:59.811Z,17.23
2018-06-18T06:45:00.529Z,17.26
2018-06-18T06:46:01.263Z,17.33
2018-06-18T06:47:01.990Z,17.33
2018-06-18T06:48:02.710Z,17.26
2018-06-18T06:49:03.428Z,17.19
2018-06-18T06:50:04.149Z,17.24
2018-06-18T06:51:04.870Z,17.29
2018-06-18T06:52:05.588Z,17.29
2018-06-18T06:53:06.309Z,17.27
2018-06-18T06:54:07.029Z,17.34
2018-06-18T06:55:07.746Z,17.29
2018-06-18T06:56:08.480Z,17.26
2018-06-18T06:57:09.196Z,17.27
2018-06-18T06:58:09.927Z,17.27
2018-06-18T06:59:10.659Z,17.39
2018-06-18T07:00:11.378Z,17.29
2018-06-18T07:01:12.122Z,17.41
2018-06-18T07:02:12.829Z,17.36
2018-06-18T07:03:13.548Z,17.30
2018-06-18T07:04:14.270Z,17.38
2018-06-18T07:05:14.990Z,17.38
2018-06-18T07:06:15.722Z,17.36
2018-06-18T07:07:16.457Z,17.38
2018-06-18T07:08:17.190Z,17.42
2018-06-18T07:09:17.917Z,17.38
2018-06-18T07:10:18.637Z,17.34
2018-06-18T07:11:19.359Z,17.46
2018-06-18T07:12:20.089Z,17.54
2018-06-18T07:13:20.889Z,17.51
2018-06-18T07:14:21.529Z,17.57
2018-06-18T07:15:22.263Z,17.54
2018-06-18T07:16:22.982Z,17.64
2018-06-18T07:17:23.700Z,17.64
2018-06-18T07:18:24.433Z,17.52
2018-06-18T07:19:25.153Z,17.56
2018-06-18T07:20:25.885Z,17.64
2018-06-18T07:21:26.601Z,17.67
2018-06-18T07:22:27.330Z,17.68
2018-06-18T07:23:28.047Z,17.65
2018-06-18T07:24:28.778Z,17.74
2018-06-18T07:25:29.497Z,17.79
2018-06-18T07:26:30.215Z,17.82
2018-06-18T07:27:30.934Z,17.89
2018-06-18T07:28:31.656Z,17.90
2018-06-18T07:29:32.375Z,17.89
2018-06-18T07:30:33.272Z,17.89
2018-06-18T07:31:33.823Z,18.01
2018-06-18T07:32:34.544Z,18.11
2018-06-18T07:33:35.280Z,18.11
2018-06-18T07:34:35.999Z,18.28
2018-06-18T07:35:36.722Z,18.35
2018-06-18T07:36:37.441Z,18.28
2018-06-18T07:37:38.159Z,18.29
2018-06-18T07:38:38.880Z,18.28
2018-06-18T07:39:39.602Z,18.41
2018-06-18T07:40:40.322Z,18.44
2018-06-18T07:41:41.055Z,18.65
2018-06-18T07:42:41.775Z,18.47
2018-06-18T07:43:42.497Z,18.25
2018-06-18T07:44:43.228Z,18.20
2018-06-18T07:45:43.961Z,18.26
2018-06-18T07:46:44.681Z,18.28
2018-06-18T07:47:45.400Z,18.25
2018-06-18T07:48:46.122Z,18.22
2018-06-18T07:49:46.840Z,18.29
2018-06-18T07:50:47.572Z,18.29
2018-06-18T07:51:48.376Z,18.29
2018-06-18T07:52:49.008Z,18.33
2018-06-18T07:53:49.729Z,18.38
2018-06-18T07:54:50.461Z,18.28
2018-06-18T07:55:51.180Z,18.26
2018-06-18T07:56:51.902Z,18.29
2018-06-18T07:57:52.626Z,18.38
2018-06-18T07:58:53.342Z,18.37
2018-06-18T07:59:54.063Z,18.43
2018-06-18T08:00:54.781Z,18.49
2018-06-18T08:01:55.501Z,18.41
2018-06-18T08:02:56.233Z,18.37
2018-06-18T08:03:56.968Z,18.43
2018-06-18T08:04:57.688Z,18.50
2018-06-18T08:05:58.408Z,18.53
2018-06-18T08:06:59.131Z,18.56
2018-06-18T08:07:59.855Z,18.56
2018-06-18T08:09:00.569Z,18.60
2018-06-18T08:10:01.355Z,18.73
2018-06-18T08:11:02.020Z,18.65
2018-06-18T08:12:02.740Z,18.65
2018-06-18T08:13:03.467Z,18.71
2018-06-18T08:14:04.178Z,18.71
2018-06-18T08:15:04.898Z,18.66
2018-06-18T08:16:05.614Z,18.70
2018-06-18T08:17:06.351Z,18.70
2018-06-18T08:18:07.079Z,18.70
2018-06-18T08:19:07.829Z,18.78
2018-06-18T08:20:08.549Z,18.74
2018-06-18T08:21:09.267Z,18.74
2018-06-18T08:22:09.989Z,18.81
2018-06-18T08:23:10.712Z,18.78
2018-06-18T08:24:11.433Z,18.80
2018-06-18T08:25:12.165Z,18.92
2018-06-18T08:26:12.886Z,18.92
2018-06-18T08:27:13.607Z,18.95
2018-06-18T08:28:14.328Z,18.95
2018-06-18T08:29:15.048Z,18.86
2018-06-18T08:30:15.782Z,18.73
2018-06-18T08:31:16.504Z,18.81
2018-06-18T08:32:17.277Z,18.95
2018-06-18T08:33:17.947Z,19.00
2018-06-18T08:34:18.669Z,19.12
2018-06-18T08:35:19.391Z,19.21
2018-06-18T08:36:20.112Z,19.26
2018-06-18T08:37:20.833Z,19.31
2018-06-18T08:38:21.554Z,19.48
2018-06-18T08:39:22.275Z,19.37
2018-06-18T08:40:22.999Z,19.58
2018-06-18T08:41:23.721Z,19.48
2018-06-18T08:42:24.442Z,19.58
2018-06-18T08:43:25.177Z,19.69
2018-06-18T08:44:25.916Z,19.76
2018-06-18T08:45:26.650Z,19.99
2018-06-18T08:46:27.373Z,19.91
2018-06-18T08:47:28.095Z,19.96
2018-06-18T08:48:28.833Z,19.88
2018-06-18T08:49:29.557Z,19.74
2018-06-18T08:50:30.280Z,19.85
2018-06-18T08:51:31.008Z,20.00
2018-06-18T08:52:31.727Z,20.21
2018-06-18T08:53:32.456Z,20.22
2018-06-18T08:54:33.177Z,20.31
2018-06-18T08:55:33.901Z,20.29
2018-06-18T08:56:34.624Z,20.22
2018-06-18T08:57:35.349Z,20.28
2018-06-18T08:58:36.074Z,20.41
2018-06-18T08:59:36.814Z,20.43
2018-06-18T09:00:37.539Z,20.41
2018-06-18T09:01:38.274Z,20.31
2018-06-18T09:02:39.011Z,20.21
2018-06-18T09:03:39.734Z,20.11
2018-06-18T09:04:40.457Z,20.00
2018-06-18T09:05:41.183Z,20.02
2018-06-18T09:06:41.909Z,20.10
2018-06-18T09:07:42.648Z,20.11
2018-06-18T09:08:43.372Z,20.50
2018-06-18T09:09:44.102Z,20.77
2018-06-18T09:10:44.832Z,20.84
2018-06-18T09:11:45.560Z,21.00
2018-06-18T09:12:46.299Z,21.05
2018-06-18T09:13:47.040Z,20.85
2018-06-18T09:14:47.765Z,21.02
2018-06-18T09:15:48.488Z,20.95
2018-06-18T09:16:49.211Z,20.93
2018-06-18T09:17:49.934Z,20.67
2018-06-18T09:18:50.675Z,20.48
2018-06-18T09:19:51.396Z,20.63
2018-06-18T09:20:52.120Z,20.58
2018-06-18T09:21:52.846Z,20.37
2018-06-18T09:22:53.585Z,20.37
2018-06-18T09:23:54.310Z,20.60
2018-06-18T09:24:55.032Z,20.43
2018-06-18T09:25:55.755Z,20.28
2018-06-18T09:26:56.480Z,20.32
2018-06-18T09:27:57.202Z,20.19
2018-06-18T09:28:57.937Z,20.24
2018-06-18T09:29:58.658Z,20.07
2018-06-18T09:30:59.378Z,19.95
2018-06-18T09:32:00.139Z,19.95
2018-06-18T09:33:00.841Z,19.86
2018-06-18T09:34:01.573Z,19.88
2018-06-18T09:35:02.294Z,19.86
2018-06-18T09:36:03.030Z,19.91
2018-06-18T09:37:03.750Z,19.91
2018-06-18T09:38:04.470Z,19.96
2018-06-18T09:39:05.193Z,20.00
2018-06-18T09:40:05.915Z,20.32
2018-06-18T09:41:06.650Z,20.41
2018-06-18T09:42:07.375Z,20.60
2018-06-18T09:43:08.096Z,20.66
2018-06-18T09:44:08.819Z,20.78
2018-06-18T09:45:09.557Z,20.77
2018-06-18T09:46:10.279Z,20.62
2018-06-18T09:47:11.003Z,20.58
2018-06-18T09:48:11.818Z,20.56
2018-06-18T09:49:12.442Z,20.50
2018-06-18T09:50:13.169Z,20.60
2018-06-18T09:51:13.884Z,20.50
2018-06-18T09:52:14.605Z,20.43
2018-06-18T09:53:15.327Z,20.37
2018-06-18T09:54:16.052Z,20.28
2018-06-18T09:55:16.781Z,20.28
2018-06-18T09:56:17.516Z,20.10
2018-06-18T09:57:18.238Z,20.24
2018-06-18T09:58:18.956Z,20.26
2018-06-18T09:59:19.676Z,20.09
2018-06-18T10:00:20.398Z,20.07
2018-06-18T10:01:21.121Z,20.40
2018-06-18T10:02:21.871Z,20.63
2018-06-18T10:03:22.582Z,20.88
2018-06-18T10:04:23.321Z,21.17
2018-06-18T10:05:24.057Z,21.35
2018-06-18T10:06:24.781Z,21.62
2018-06-18T10:07:25.506Z,21.50
2018-06-18T10:08:26.347Z,21.46
2018-06-18T10:09:26.965Z,21.27
2018-06-18T10:10:27.694Z,21.25
2018-06-18T10:11:28.428Z,21.29
2018-06-18T10:12:29.163Z,21.22
2018-06-18T10:13:29.886Z,21.03
2018-06-18T10:14:30.640Z,21.02
2018-06-18T10:15:31.343Z,21.02
2018-06-18T10:16:32.064Z,20.97
2018-06-18T10:17:32.789Z,20.72
2018-06-18T10:18:33.509Z,20.66
2018-06-18T10:19:34.233Z,20.62
2018-06-18T10:20:34.948Z,20.62
2018-06-18T10:21:35.666Z,20.51
2018-06-18T10:22:36.386Z,20.47
2018-06-18T10:23:37.166Z,20.28
2018-06-18T10:24:37.888Z,20.32
2018-06-18T10:25:38.608Z,20.18
2018-06-18T10:26:39.328Z,20.22
2018-06-18T10:27:40.060Z,20.13
2018-06-18T10:28:40.778Z,20.09
2018-06-18T10:29:41.514Z,20.11
2018-06-18T10:30:42.244Z,20.09
2018-06-18T10:31:42.966Z,20.10
2018-06-18T10:32:43.684Z,20.10
2018-06-18T10:33:44.421Z,20.26
2018-06-18T10:34:45.142Z,20.34
2018-06-18T10:35:45.866Z,20.51
2018-06-18T10:36:46.589Z,20.67
2018-06-18T10:37:47.323Z,20.63
2018-06-18T10:38:48.044Z,20.72
2018-06-18T10:39:48.766Z,20.84
2018-06-18T10:40:49.500Z,20.82
2018-06-18T10:41:50.221Z,20.96
2018-06-18T10:42:50.958Z,20.99
2018-06-18T10:43:51.680Z,21.11
2018-06-18T10:44:52.403Z,21.15
2018-06-18T10:45:53.139Z,21.25
2018-06-18T10:46:53.861Z,21.20
2018-06-18T10:47:54.581Z,21.30
2018-06-18T10:48:55.566Z,21.32
2018-06-18T10:49:56.229Z,21.21
2018-06-18T10:50:56.950Z,21.09
2018-06-18T10:51:57.685Z,21.11
2018-06-18T10:52:58.408Z,21.09
2018-06-18T10:53:59.130Z,20.95
2018-06-18T10:54:59.852Z,20.92
2018-06-18T10:56:00.573Z,20.92
2018-06-18T10:57:01.348Z,20.82
2018-06-18T10:58:02.021Z,20.78
2018-06-18T10:59:02.754Z,20.74
2018-06-18T11:00:03.487Z,20.72
2018-06-18T11:01:04.209Z,20.77
2018-06-18T11:02:04.941Z,20.69
2018-06-18T11:03:05.672Z,20.75
2018-06-18T11:04:06.394Z,20.67
2018-06-18T11:05:07.115Z,20.67
2018-06-18T11:06:07.850Z,20.59
2018-06-18T11:07:08.570Z,20.70
2018-06-18T11:08:09.292Z,20.70
2018-06-18T11:09:10.013Z,20.59
2018-06-18T11:10:10.771Z,20.74
2018-06-18T11:11:11.484Z,20.75
2018-06-18T11:12:12.310Z,20.81
2018-06-18T11:13:13.030Z,20.80
2018-06-18T11:14:13.762Z,20.84
2018-06-18T11:15:14.487Z,20.84
2018-06-18T11:16:15.340Z,20.96
2018-06-18T11:17:16.194Z,20.97
2018-06-18T11:18:16.658Z,20.90
2018-06-18T11:19:17.397Z,20.87
2018-06-18T11:20:18.113Z,20.82
2018-06-18T11:21:18.834Z,20.95
2018-06-18T11:22:19.558Z,21.00
2018-06-18T11:23:20.284Z,20.93
2018-06-18T11:24:21.016Z,20.96
2018-06-18T11:25:21.754Z,21.09
2018-06-18T11:26:22.518Z,21.15
2018-06-18T11:27:23.179Z,21.32
2018-06-18T11:28:23.969Z,21.32
2018-06-18T11:29:24.625Z,21.52
2018-06-18T11:30:25.360Z,21.72
2018-06-18T11:31:26.091Z,21.82
2018-06-18T11:32:26.859Z,21.87
2018-06-18T11:33:27.529Z,21.93
2018-06-18T11:34:28.250Z,22.10
2018-06-18T11:35:28.971Z,21.75
2018-06-18T11:36:29.692Z,21.70
2018-06-18T11:37:30.432Z,21.83
2018-06-18T11:38:31.154Z,21.83
2018-06-18T11:39:31.930Z,21.98
2018-06-18T11:40:32.611Z,21.70
2018-06-18T11:41:33.334Z,21.66
2018-06-18T11:42:34.131Z,21.77
2018-06-18T11:43:34.876Z,21.72
2018-06-18T11:44:35.592Z,21.67
2018-06-18T11:45:36.315Z,21.60
2018-06-18T11:46:37.038Z,21.54
2018-06-18T11:47:37.760Z,21.50
2018-06-18T11:48:38.480Z,21.54
2018-06-18T11:49:39.202Z,21.55
2018-06-18T11:50:39.927Z,21.18
2018-06-18T11:51:40.648Z,21.07
2018-06-18T11:52:41.414Z,20.92
2018-06-18T11:53:42.112Z,20.96
2018-06-18T11:54:42.835Z,21.14
2018-06-18T11:55:43.557Z,21.11
2018-06-18T11:56:44.277Z,21.17
2018-06-18T11:57:45.036Z,21.05
2018-06-18T11:58:45.756Z,20.95
2018-06-18T11:59:46.477Z,20.82
2018-06-18T12:00:47.195Z,20.88
2018-06-18T12:01:47.915Z,20.78
2018-06-18T12:02:48.650Z,20.87
2018-06-18T12:03:49.482Z,20.81
2018-06-18T12:04:50.145Z,20.97
2018-06-18T12:05:50.867Z,20.85
2018-06-18T12:06:51.589Z,21.00
2018-06-18T12:07:52.336Z,21.03
2018-06-18T12:08:53.059Z,21.06
2018-06-18T12:09:53.833Z,21.15
2018-06-18T12:10:54.513Z,21.30
2018-06-18T12:11:55.233Z,21.18
2018-06-18T12:12:55.966Z,21.15
2018-06-18T12:13:56.686Z,21.05
2018-06-18T12:14:57.408Z,21.09
2018-06-18T12:15:58.129Z,21.03
2018-06-18T12:16:58.851Z,21.09
2018-06-18T12:17:59.581Z,20.97
2018-06-18T12:19:00.300Z,20.96
2018-06-18T12:20:01.023Z,21.05
2018-06-18T12:21:01.745Z,21.00
2018-06-18T12:22:02.465Z,21.09
2018-06-18T12:23:03.186Z,20.96
2018-06-18T12:24:03.904Z,21.11
2018-06-18T12:25:04.624Z,21.17
2018-06-18T12:26:05.357Z,21.14
2018-06-18T12:27:06.081Z,21.32
2018-06-18T12:28:06.860Z,21.33
2018-06-18T12:29:07.522Z,21.33
2018-06-18T12:30:08.245Z,21.43
2018-06-18T12:31:08.960Z,21.55
2018-06-18T12:32:09.679Z,21.36
2018-06-18T12:33:10.399Z,21.11
2018-06-18T12:34:11.216Z,20.90
2018-06-18T12:35:11.937Z,20.88
2018-06-18T12:36:12.672Z,20.82
2018-06-18T12:37:13.392Z,20.82
2018-06-18T12:38:14.114Z,20.77
2018-06-18T12:39:14.834Z,20.62
2018-06-18T12:40:15.554Z,20.63
2018-06-18T12:41:16.365Z,20.67
2018-06-18T12:42:17.005Z,20.72
2018-06-18T12:43:17.724Z,20.66
2018-06-18T12:44:18.443Z,20.72
2018-06-18T12:45:19.165Z,20.66
2018-06-18T12:46:19.886Z,20.85
2018-06-18T12:47:20.606Z,20.97
2018-06-18T12:48:21.329Z,21.00
2018-06-18T12:49:22.054Z,21.21
2018-06-18T12:50:22.773Z,21.33
2018-06-18T12:51:23.493Z,21.24
2018-06-18T12:52:24.213Z,21.33
2018-06-18T12:53:24.945Z,21.22
2018-06-18T12:54:25.664Z,21.35
2018-06-18T12:55:26.384Z,21.29
2018-06-18T12:56:27.105Z,21.07
2018-06-18T12:57:27.827Z,21.27
2018-06-18T12:58:28.550Z,21.18
2018-06-18T12:59:29.282Z,21.27
2018-06-18T13:00:30.010Z,21.11
2018-06-18T13:01:30.721Z,21.11
2018-06-18T13:02:31.441Z,21.12